createdAt,value
2019-01-29T00:01:46.140Z,82.96
2019-01-29T00:04:17.479Z,83.03
2019-01-29T00:06:49.063Z,83.12
2019-01-29T00:09:20.400Z,83.06
2019-01-29T00:11:52.008Z,83.16
2019-01-29T00:14:23.576Z,82.89
2019-01-29T00:16:54.880Z,82.99
2019-01-29T00:19:26.510Z,83.22
2019-01-29T00:21:57.837Z,83.25
2019-01-29T00:24:29.894Z,83.26
2019-01-29T00:27:01.501Z,83.21
2019-01-29T00:29:33.118Z,83.19
2019-01-29T00:32:04.930Z,83.30
2019-01-29T00:34:37.144Z,83.31
2019-01-29T00:37:08.835Z,83.32
2019-01-29T00:39:40.530Z,83.41
2019-01-29T00:42:11.864Z,83.52
2019-01-29T00:44:43.290Z,83.44
2019-01-29T00:47:15.123Z,83.52
2019-01-29T00:49:47.180Z,83.47
2019-01-29T00:52:18.783Z,83.46
2019-01-29T00:54:51.546Z,83.50
2019-01-29T00:57:23.166Z,83.55
2019-01-29T00:59:54.451Z,83.66
2019-01-29T01:02:25.772Z,83.65
2019-01-29T01:04:57.384Z,83.93
2019-01-29T01:07:28.953Z,83.79
2019-01-29T01:10:00.637Z,83.74
2019-01-29T01:12:32.541Z,83.85
2019-01-29T01:15:03.872Z,83.93
2019-01-29T01:17:36.950Z,84.03
2019-01-29T01:20:12.973Z,84.18
2019-01-29T01:22:51.152Z,84.30
2019-01-29T01:25:21.748Z,84.47
2019-01-29T01:27:54.765Z,84.32
2019-01-29T01:30:34.333Z,84.31
2019-01-29T01:33:12.057Z,84.42
2019-01-29T01:35:44.909Z,84.43
2019-01-29T01:38:16.796Z,84.49
2019-01-29T01:40:48.100Z,84.62
2019-01-29T01:43:19.999Z,84.68
2019-01-29T01:45:51.280Z,84.82
2019-01-29T01:48:22.949Z,84.94
2019-01-29T01:50:54.252Z,84.85
2019-01-29T01:53:25.929Z,84.90
2019-01-29T01:55:57.235Z,84.93
2019-01-29T01:58:28.984Z,84.90
2019-01-29T02:01:00.294Z,84.93
2019-01-29T02:03:31.675Z,85.03
2019-01-29T02:06:03.585Z,85.21
2019-01-29T02:08:35.010Z,85.04
2019-01-29T02:11:06.675Z,85.15
2019-01-29T02:13:38.336Z,85.26
2019-01-29T02:16:11.339Z,85.29
2019-01-29T02:18:44.258Z,85.27
2019-01-29T02:21:15.510Z,85.11
2019-01-29T02:23:47.300Z,85.55
2019-01-29T02:26:18.634Z,85.71
2019-01-29T02:28:50.196Z,85.78
2019-01-29T02:31:21.492Z,85.76
2019-01-29T02:33:52.893Z,86.05
2019-01-29T02:36:24.532Z,86.12
2019-01-29T02:38:55.793Z,85.90
2019-01-29T02:41:28.177Z,85.77
2019-01-29T02:43:59.462Z,85.97
2019-01-29T02:46:31.141Z,86.03
2019-01-29T02:49:02.935Z,86.14
2019-01-29T02:51:34.240Z,86.17
2019-01-29T02:54:05.573Z,86.42
2019-01-29T02:56:36.905Z,86.51
2019-01-29T02:59:08.186Z,86.30
2019-01-29T03:01:39.467Z,86.33
2019-01-29T03:04:10.822Z,86.20
2019-01-29T03:06:42.521Z,86.76
2019-01-29T03:09:13.937Z,86.56
2019-01-29T03:11:45.398Z,86.89
2019-01-29T03:14:16.705Z,86.98
2019-01-29T03:16:47.975Z,87.11
2019-01-29T03:19:19.591Z,86.81
2019-01-29T03:21:50.814Z,86.84
2019-01-29T03:24:22.084Z,86.83
2019-01-29T03:26:53.419Z,86.73
2019-01-29T03:29:24.783Z,86.98
2019-01-29T03:31:56.581Z,86.92
2019-01-29T03:38:19.627Z,86.83
2019-01-29T03:40:50.847Z,86.85
2019-01-29T03:43:22.210Z,86.99
2019-01-29T03:45:53.506Z,86.52
2019-01-29T03:48:25.121Z,86.68
2019-01-29T03:50:56.514Z,86.60
2019-01-29T03:53:37.555Z,86.65
2019-01-29T03:56:01.703Z,86.65
2019-01-29T03:58:33.010Z,86.22
2019-01-29T04:01:04.442Z,86.48
2019-01-29T04:03:35.766Z,86.22
2019-01-29T04:06:06.972Z,86.28
2019-01-29T04:08:38.651Z,86.16
2019-01-29T04:11:10.309Z,85.66
2019-01-29T04:13:41.942Z,86.02
2019-01-29T04:16:13.363Z,86.05
2019-01-29T04:18:44.767Z,85.89
2019-01-29T04:21:16.137Z,85.82
2019-01-29T04:23:49.006Z,85.69
2019-01-29T04:26:20.271Z,85.45
2019-01-29T04:28:51.554Z,85.67
2019-01-29T04:31:22.919Z,85.75
2019-01-29T04:33:54.849Z,85.57
2019-01-29T04:36:26.787Z,85.50
2019-01-29T04:38:58.102Z,85.37
2019-01-29T04:41:29.411Z,85.39
2019-01-29T04:44:01.006Z,85.25
2019-01-29T04:46:32.366Z,85.40
2019-01-29T04:49:03.726Z,85.04
2019-01-29T04:51:34.997Z,85.20
2019-01-29T04:54:06.283Z,85.37
2019-01-29T04:56:37.814Z,85.51
2019-01-29T04:59:09.127Z,85.54
2019-01-29T05:01:40.575Z,85.64
2019-01-29T05:04:11.971Z,85.41
2019-01-29T05:06:43.717Z,85.62
2019-01-29T05:09:15.570Z,85.40
2019-01-29T05:11:47.260Z,85.42
2019-01-29T05:14:18.616Z,85.44
2019-01-29T05:16:50.093Z,85.40
2019-01-29T05:19:21.398Z,85.60
2019-01-29T05:21:52.710Z,85.41
2019-01-29T05:24:24.895Z,85.30
2019-01-29T05:26:56.578Z,85.27
2019-01-29T05:29:29.351Z,85.20
2019-01-29T05:32:00.666Z,85.64
2019-01-29T05:34:32.045Z,85.60
2019-01-29T05:37:03.423Z,85.60
2019-01-29T05:39:34.790Z,85.54
2019-01-29T05:42:06.071Z,85.65
2019-01-29T05:44:37.380Z,85.32
2019-01-29T05:47:08.818Z,85.64
2019-01-29T05:49:40.144Z,85.28
2019-01-29T05:52:11.502Z,85.24
2019-01-29T05:54:42.806Z,85.44
2019-01-29T05:57:14.200Z,85.44
2019-01-29T05:59:45.951Z,85.34
2019-01-29T06:02:17.286Z,85.86
2019-01-29T06:04:48.931Z,85.82
2019-01-29T06:07:20.242Z,85.53
2019-01-29T06:09:51.609Z,85.60
2019-01-29T06:12:23.215Z,85.30
2019-01-29T06:14:54.790Z,85.52
2019-01-29T06:17:27.481Z,85.86
2019-01-29T06:19:59.428Z,85.68
2019-01-29T06:22:30.738Z,85.49
2019-01-29T06:25:02.067Z,85.42
2019-01-29T06:27:33.436Z,85.36
2019-01-29T06:30:05.437Z,85.17
2019-01-29T06:32:36.686Z,85.11
2019-01-29T06:35:10.332Z,85.14
2019-01-29T06:37:42.107Z,85.14
2019-01-29T06:40:16.893Z,85.04
2019-01-29T06:42:48.483Z,85.06
2019-01-29T06:45:25.861Z,85.41
2019-01-29T06:47:57.360Z,85.22
2019-01-29T06:50:29.267Z,85.09
2019-01-29T06:53:03.695Z,84.89
2019-01-29T06:55:35.848Z,85.12
2019-01-29T06:58:07.242Z,85.12
2019-01-29T07:00:39.078Z,85.01
2019-01-29T07:03:10.421Z,84.83
2019-01-29T07:05:42.361Z,85.11
2019-01-29T07:08:13.921Z,85.09
2019-01-29T07:10:46.367Z,85.27
2019-01-29T07:13:17.984Z,84.99
2019-01-29T07:16:17.261Z,85.18
2019-01-29T07:18:59.243Z,85.42
2019-01-29T07:21:30.867Z,85.34
2019-01-29T07:24:02.383Z,85.20
2019-01-29T07:26:33.699Z,85.47
2019-01-29T07:29:05.467Z,85.28
2019-01-29T07:31:36.803Z,85.17
2019-01-29T07:34:08.066Z,85.37
2019-01-29T07:36:39.674Z,85.40
2019-01-29T07:39:13.475Z,85.19
2019-01-29T07:41:44.909Z,85.25
2019-01-29T07:44:16.320Z,85.25
2019-01-29T07:46:48.033Z,85.29
2019-01-29T07:49:19.988Z,85.21
2019-01-29T07:51:51.310Z,85.28
2019-01-29T07:54:22.974Z,85.41
2019-01-29T07:56:54.282Z,85.34
2019-01-29T07:59:33.050Z,85.27
2019-01-29T08:01:58.551Z,85.40
2019-01-29T08:04:29.864Z,85.05
2019-01-29T08:07:01.298Z,85.35
2019-01-29T08:09:32.931Z,85.13
2019-01-29T08:12:04.227Z,85.25
2019-01-29T08:14:35.628Z,85.34
2019-01-29T08:17:07.492Z,85.66
2019-01-29T08:19:38.788Z,86.21
2019-01-29T08:22:10.053Z,86.09
2019-01-29T08:24:41.389Z,85.78
2019-01-29T08:27:13.304Z,85.79
2019-01-29T08:29:45.061Z,85.44
2019-01-29T08:32:16.847Z,85.47
2019-01-29T08:34:48.305Z,85.89
2019-01-29T08:37:19.630Z,85.60
2019-01-29T08:39:50.954Z,85.49
2019-01-29T08:42:22.665Z,85.53
2019-01-29T08:44:54.674Z,85.68
2019-01-29T08:47:26.019Z,85.66
2019-01-29T08:49:57.300Z,85.89
2019-01-29T08:52:28.613Z,85.97
2019-01-29T08:55:00.260Z,85.85
2019-01-29T08:57:31.541Z,85.61
2019-01-29T09:00:03.200Z,85.60
2019-01-29T09:02:34.855Z,85.35
2019-01-29T09:05:08.040Z,85.49
2019-01-29T09:07:39.338Z,85.15
2019-01-29T09:10:13.655Z,84.63
2019-01-29T09:12:45.230Z,84.61
2019-01-29T09:15:17.653Z,84.31
2019-01-29T09:17:49.299Z,84.13
2019-01-29T09:20:21.057Z,84.32
2019-01-29T09:22:52.497Z,83.92
2019-01-29T09:25:24.473Z,83.69
2019-01-29T09:27:55.798Z,83.67
2019-01-29T09:30:27.179Z,83.72
2019-01-29T09:32:58.510Z,83.84
2019-01-29T09:35:30.436Z,83.42
2019-01-29T09:38:01.799Z,83.22
2019-01-29T09:40:34.220Z,83.23
2019-01-29T09:43:06.433Z,83.05
2019-01-29T09:45:38.095Z,82.85
2019-01-29T09:48:09.760Z,82.80
2019-01-29T09:50:42.345Z,82.45
2019-01-29T09:53:14.355Z,82.50
2019-01-29T09:55:47.077Z,82.37
2019-01-29T09:58:19.687Z,82.24
2019-01-29T10:00:51.968Z,81.69
2019-01-29T10:03:23.329Z,81.37
2019-01-29T10:05:54.637Z,81.77
2019-01-29T10:08:25.945Z,81.47
2019-01-29T10:10:57.297Z,81.46
2019-01-29T10:13:28.537Z,81.50
2019-01-29T10:15:59.861Z,81.66
2019-01-29T10:18:31.613Z,81.33
2019-01-29T10:21:02.978Z,81.09
2019-01-29T10:23:34.665Z,81.01
2019-01-29T10:26:06.287Z,81.24
2019-01-29T10:28:37.506Z,81.29
2019-01-29T10:31:08.813Z,80.90
2019-01-29T10:33:40.153Z,81.15
2019-01-29T10:36:11.431Z,81.12
2019-01-29T10:38:42.852Z,81.17
2019-01-29T10:41:14.325Z,81.16
2019-01-29T10:43:46.091Z,81.18
2019-01-29T10:46:17.384Z,80.76
2019-01-29T10:48:48.737Z,81.28
2019-01-29T10:51:21.181Z,81.29
2019-01-29T10:53:52.925Z,81.08
2019-01-29T10:56:24.701Z,81.17
2019-01-29T10:58:56.302Z,81.52
2019-01-29T11:01:27.810Z,80.92
2019-01-29T11:03:59.619Z,80.97
2019-01-29T11:06:30.973Z,80.95
2019-01-29T11:09:02.266Z,80.82
2019-01-29T11:11:33.598Z,80.62
2019-01-29T11:14:04.963Z,81.06
2019-01-29T11:16:36.227Z,80.84
2019-01-29T11:19:08.204Z,80.86
2019-01-29T11:21:39.484Z,80.56
2019-01-29T11:24:11.068Z,80.80
2019-01-29T11:26:42.373Z,80.80
2019-01-29T11:29:13.793Z,80.80
2019-01-29T11:31:45.666Z,80.70
2019-01-29T11:34:17.460Z,81.11
2019-01-29T11:36:49.088Z,80.61
2019-01-29T11:39:20.381Z,80.54
2019-01-29T11:41:51.712Z,80.54
2019-01-29T11:44:23.050Z,80.74
2019-01-29T11:46:54.315Z,80.42
2019-01-29T11:49:25.651Z,80.43
2019-01-29T11:51:56.969Z,80.32
2019-01-29T11:54:28.578Z,79.90
2019-01-29T11:57:00.422Z,79.97
2019-01-29T11:59:31.737Z,80.15
2019-01-29T12:02:03.353Z,79.91
2019-01-29T12:04:34.899Z,79.75
2019-01-29T12:07:06.192Z,79.88
2019-01-29T12:09:37.651Z,79.85
2019-01-29T12:12:09.052Z,79.33
2019-01-29T12:14:40.352Z,79.91
2019-01-29T12:17:12.055Z,80.00
2019-01-29T12:19:43.472Z,79.58
2019-01-29T12:22:14.861Z,79.91
2019-01-29T12:24:46.161Z,79.69
2019-01-29T12:27:17.581Z,79.52
2019-01-29T12:29:48.901Z,79.00
2019-01-29T12:32:20.202Z,79.37
2019-01-29T12:34:51.893Z,79.59
2019-01-29T12:37:23.196Z,79.42
2019-01-29T12:39:54.450Z,79.10
2019-01-29T12:42:25.778Z,78.85
2019-01-29T12:44:57.210Z,78.81
2019-01-29T12:47:28.604Z,78.94
2019-01-29T12:49:59.932Z,79.02
2019-01-29T12:52:49.180Z,78.81
2019-01-29T12:55:20.495Z,78.76
2019-01-29T12:57:52.223Z,78.67
2019-01-29T13:00:25.628Z,78.27
2019-01-29T13:02:57.171Z,78.39
2019-01-29T13:05:28.508Z,79.03
2019-01-29T13:07:59.813Z,78.53
2019-01-29T13:10:31.293Z,78.21
2019-01-29T13:13:02.949Z,78.12
2019-01-29T13:15:34.401Z,78.19
2019-01-29T13:18:05.970Z,78.18
2019-01-29T13:20:37.522Z,78.09
2019-01-29T13:23:09.378Z,77.80
2019-01-29T13:25:40.777Z,78.37
2019-01-29T13:28:12.280Z,77.98
2019-01-29T13:30:43.750Z,77.68
2019-01-29T13:33:17.046Z,77.59
2019-01-29T13:35:48.894Z,77.06
2019-01-29T13:38:20.126Z,76.73
2019-01-29T13:40:51.491Z,76.78
2019-01-29T13:43:22.933Z,77.03
2019-01-29T13:45:54.195Z,76.49
2019-01-29T13:48:25.517Z,76.91
2019-01-29T13:51:02.944Z,75.32
2019-01-29T13:53:34.599Z,75.70
2019-01-29T13:56:06.028Z,75.70
2019-01-29T13:58:37.391Z,74.53
2019-01-29T14:01:08.880Z,75.25
2019-01-29T14:03:40.550Z,74.88
2019-01-29T14:06:12.321Z,74.28
2019-01-29T14:08:44.483Z,74.34
2019-01-29T14:11:15.969Z,74.06
2019-01-29T14:13:47.592Z,73.87
2019-01-29T14:16:18.922Z,73.87
2019-01-29T14:18:50.278Z,73.87
2019-01-29T14:21:22.216Z,74.24
2019-01-29T14:23:53.486Z,74.59
2019-01-29T14:26:24.864Z,74.23
2019-01-29T14:28:56.175Z,74.37
2019-01-29T14:31:27.551Z,73.88
2019-01-29T14:33:58.860Z,74.34
2019-01-29T14:36:30.172Z,74.14
2019-01-29T14:40:14.851Z,73.66
2019-01-29T14:42:48.308Z,73.78
2019-01-29T14:45:26.544Z,74.17
2019-01-29T14:47:57.778Z,73.76
2019-01-29T14:50:30.089Z,74.11
2019-01-29T14:53:01.407Z,74.20
2019-01-29T14:55:32.994Z,74.08
2019-01-29T14:58:04.921Z,73.06
2019-01-29T15:00:37.653Z,74.00
2019-01-29T15:03:08.998Z,73.46
2019-01-29T15:05:40.710Z,74.06
2019-01-29T15:08:12.151Z,72.70
2019-01-29T15:10:43.493Z,73.37
2019-01-29T15:13:15.099Z,73.39
2019-01-29T15:15:56.005Z,73.67
2019-01-29T15:18:33.519Z,73.24
2019-01-29T15:21:05.172Z,73.86
2019-01-29T15:23:36.807Z,74.77
2019-01-29T15:26:08.461Z,74.13
2019-01-29T15:28:40.560Z,74.81
2019-01-29T15:31:12.163Z,74.39
2019-01-29T15:33:43.509Z,75.64
2019-01-29T15:36:15.400Z,75.08
2019-01-29T15:38:47.589Z,75.21
2019-01-29T15:41:18.913Z,75.45
2019-01-29T15:43:50.627Z,75.86
2019-01-29T15:46:21.908Z,75.93
2019-01-29T15:48:53.177Z,75.90
2019-01-29T15:51:24.490Z,76.26
2019-01-29T15:53:55.837Z,76.25
2019-01-29T15:56:28.268Z,76.45
2019-01-29T15:59:00.867Z,76.38
2019-01-29T16:01:33.811Z,76.36
2019-01-29T16:04:06.568Z,76.55
2019-01-29T16:06:38.949Z,76.76
2019-01-29T16:09:11.974Z,76.37
2019-01-29T16:11:45.225Z,76.39
2019-01-29T16:14:18.386Z,76.76
2019-01-29T16:16:51.033Z,76.53
2019-01-29T16:19:23.273Z,76.64
2019-01-29T16:21:55.437Z,76.63
2019-01-29T16:24:27.338Z,76.99
2019-01-29T16:27:06.639Z,77.10
2019-01-29T16:29:32.993Z,77.14
2019-01-29T16:32:05.147Z,77.34
2019-01-29T16:34:37.591Z,77.62
2019-01-29T16:37:09.229Z,77.42
2019-01-29T16:39:40.930Z,77.46
2019-01-29T16:42:13.107Z,77.54
2019-01-29T16:44:45.065Z,77.45
2019-01-29T16:47:17.095Z,77.65
2019-01-29T16:49:49.324Z,77.75
2019-01-29T16:52:20.981Z,77.77
2019-01-29T16:54:52.587Z,77.74
2019-01-29T16:57:31.502Z,77.95
2019-01-29T16:59:57.709Z,78.06
2019-01-29T17:02:29.722Z,78.49
2019-01-29T17:05:01.028Z,78.61
2019-01-29T17:07:32.824Z,78.87
2019-01-29T17:10:05.328Z,79.03
2019-01-29T17:12:37.184Z,79.08
2019-01-29T17:15:11.672Z,79.08
2019-01-29T17:17:43.729Z,79.16
2019-01-29T17:20:19.867Z,78.89
2019-01-29T17:22:51.901Z,78.67
2019-01-29T17:25:23.245Z,78.71
2019-01-29T17:27:54.562Z,78.62
2019-01-29T17:30:38.646Z,78.99
2019-01-29T17:33:11.400Z,79.28
2019-01-29T17:35:43.155Z,79.59
2019-01-29T17:38:14.513Z,80.14
2019-01-29T17:40:46.826Z,80.37
2019-01-29T17:43:18.235Z,80.66
2019-01-29T17:45:50.921Z,80.79
2019-01-29T17:48:22.247Z,80.99
2019-01-29T17:50:53.689Z,81.03
2019-01-29T17:53:25.941Z,81.09
2019-01-29T17:55:57.608Z,81.22
2019-01-29T17:58:28.869Z,81.26
2019-01-29T18:01:01.920Z,81.61
2019-01-29T18:03:33.246Z,81.72
2019-01-29T18:06:04.701Z,81.89
2019-01-29T18:08:36.543Z,81.85
2019-01-29T18:11:07.966Z,82.07
2019-01-29T18:13:39.303Z,82.15
2019-01-29T18:16:10.826Z,82.15
2019-01-29T18:18:42.241Z,82.13
2019-01-29T18:21:13.637Z,82.18
2019-01-29T18:23:45.001Z,82.35
2019-01-29T18:26:16.444Z,82.59
2019-01-29T18:28:47.791Z,82.74
2019-01-29T18:31:19.256Z,82.73
2019-01-29T18:33:50.591Z,82.33
2019-01-29T18:36:22.019Z,82.00
2019-01-29T18:38:53.700Z,81.77
2019-01-29T18:41:25.037Z,81.75
2019-01-29T18:43:56.353Z,81.56
2019-01-29T18:46:27.720Z,81.45
2019-01-29T18:48:59.007Z,81.08
2019-01-29T18:51:30.331Z,80.61
2019-01-29T18:54:01.730Z,80.45
2019-01-29T18:56:33.109Z,80.62
2019-01-29T18:59:04.766Z,80.56
2019-01-29T19:01:36.230Z,80.50
2019-01-29T19:04:07.606Z,80.66
2019-01-29T19:06:38.971Z,80.67
2019-01-29T19:09:10.566Z,80.63
2019-01-29T19:11:42.179Z,80.74
2019-01-29T19:14:13.551Z,80.45
2019-01-29T19:16:45.244Z,80.42
2019-01-29T19:19:17.364Z,80.40
2019-01-29T19:21:49.062Z,80.01
2019-01-29T19:24:20.464Z,80.04
2019-01-29T19:26:52.167Z,79.55
2019-01-29T19:29:23.504Z,79.41
2019-01-29T19:31:55.741Z,79.66
2019-01-29T19:34:28.501Z,79.82
2019-01-29T19:37:00.214Z,79.97
2019-01-29T19:39:31.573Z,80.13
2019-01-29T19:42:02.920Z,80.16
2019-01-29T19:44:34.783Z,80.16
2019-01-29T19:47:06.179Z,80.24
2019-01-29T19:49:37.460Z,79.41
2019-01-29T19:52:08.875Z,79.52
2019-01-29T19:54:40.715Z,80.09
2019-01-29T19:57:13.142Z,80.09
2019-01-29T19:59:45.363Z,80.16
2019-01-29T20:02:17.288Z,80.14
2019-01-29T20:04:48.827Z,80.43
2019-01-29T20:07:20.197Z,80.62
2019-01-29T20:09:51.553Z,80.84
2019-01-29T20:12:22.864Z,81.06
2019-01-29T20:14:54.237Z,81.05
2019-01-29T20:17:25.535Z,81.29
2019-01-29T20:19:56.844Z,81.51
2019-01-29T20:22:28.238Z,81.95
2019-01-29T20:25:00.483Z,82.13
2019-01-29T20:27:31.810Z,82.29
2019-01-29T20:30:03.242Z,82.38
2019-01-29T20:32:34.516Z,82.46
2019-01-29T20:35:06.568Z,82.59
2019-01-29T20:37:38.188Z,82.77
2019-01-29T20:40:13.240Z,82.85
2019-01-29T20:42:44.927Z,82.75
2019-01-29T20:45:16.792Z,82.56
2019-01-29T20:47:48.628Z,82.64
2019-01-29T20:50:26.225Z,82.75
2019-01-29T20:52:57.545Z,82.39
2019-01-29T20:55:28.973Z,82.39
2019-01-29T20:58:00.285Z,82.44
2019-01-29T21:00:37.984Z,82.50
2019-01-29T21:03:09.562Z,82.59
2019-01-29T21:05:42.107Z,82.45
2019-01-29T21:08:13.810Z,82.47
2019-01-29T21:10:45.098Z,82.47
2019-01-29T21:13:16.514Z,82.61
2019-01-29T21:15:48.051Z,82.91
2019-01-29T21:18:19.316Z,83.22
2019-01-29T21:20:56.841Z,83.44
2019-01-29T21:23:24.842Z,83.53
2019-01-29T21:25:56.391Z,83.63
2019-01-29T21:28:28.024Z,83.99
2019-01-29T21:37:30.448Z,84.09
2019-01-29T21:40:01.821Z,84.36
2019-01-29T21:42:33.636Z,84.40
2019-01-29T21:45:06.429Z,84.55
2019-01-29T21:47:37.729Z,84.70
2019-01-29T21:50:21.290Z,84.75
2019-01-29T21:52:54.549Z,84.73
2019-01-29T21:55:28.831Z,84.73
2019-01-29T21:58:00.424Z,84.78
2019-01-29T22:00:41.253Z,84.88
2019-01-29T22:03:13.634Z,84.69
2019-01-29T22:05:45.035Z,84.90
2019-01-29T22:08:16.992Z,85.16
2019-01-29T22:10:48.359Z,84.93
2019-01-29T22:13:19.644Z,85.20
2019-01-29T22:15:51.417Z,85.07
2019-01-29T22:18:22.837Z,85.27
2019-01-29T22:20:55.009Z,85.34
2019-01-29T22:23:26.681Z,85.69
2019-01-29T22:25:58.641Z,85.54
2019-01-29T22:28:30.603Z,85.71
2019-01-29T22:31:05.349Z,85.98
2019-01-29T22:33:36.961Z,85.98
2019-01-29T22:36:08.237Z,86.06
2019-01-29T22:38:39.711Z,86.09
2019-01-29T22:41:11.435Z,86.20
2019-01-29T22:43:43.059Z,85.94
2019-01-29T22:46:14.529Z,85.96
2019-01-29T22:48:46.289Z,86.15
2019-01-29T22:51:17.691Z,86.52
2019-01-29T22:53:49.219Z,86.57
2019-01-29T22:56:20.519Z,86.76
2019-01-29T22:58:51.840Z,86.86
2019-01-29T23:01:42.270Z,86.93
2019-01-29T23:04:23.029Z,86.91
2019-01-29T23:07:24.052Z,87.23
2019-01-29T23:09:55.320Z,87.18
2019-01-29T23:12:26.608Z,87.29
2019-01-29T23:14:57.976Z,87.24
2019-01-29T23:17:32.482Z,87.33
2019-01-29T23:20:03.781Z,87.51
2019-01-29T23:22:35.245Z,87.71
2019-01-29T23:25:09.066Z,87.66
2019-01-29T23:27:40.433Z,87.68
2019-01-29T23:30:16.611Z,87.58
2019-01-29T23:32:49.686Z,87.67
2019-01-29T23:35:21.664Z,87.77
2019-01-29T23:37:52.999Z,88.01
2019-01-29T23:40:24.642Z,87.93
2019-01-29T23:42:55.843Z,88.00
2019-01-29T23:45:27.190Z,88.00
2019-01-29T23:48:01.755Z,87.92
2019-01-29T23:50:33.556Z,87.84
2019-01-29T23:53:04.988Z,87.94
2019-01-29T23:55:36.575Z,88.13
2019-01-29T23:58:08.188Z,88.08
